createdAt,value
2023-07-11T00:01:39.527Z,9.70
2023-07-11T00:04:09.870Z,8.73
2023-07-11T00:06:38.754Z,8.73
2023-07-11T00:09:08.787Z,8.70
2023-07-11T00:11:37.836Z,8.53
2023-07-11T00:14:07.025Z,8.50
2023-07-11T00:16:37.328Z,8.57
2023-07-11T00:19:06.717Z,9.50
2023-07-11T00:21:37.228Z,9.80
2023-07-11T00:24:09.038Z,8.97
2023-07-11T00:26:39.160Z,8.77
2023-07-11T00:29:21.625Z,9.07
2023-07-11T00:31:53.936Z,8.70
2023-07-11T00:34:23.786Z,9.07
2023-07-11T00:36:57.150Z,8.57
2023-07-11T00:39:34.174Z,8.50
2023-07-11T00:42:06.083Z,8.57
2023-07-11T00:44:52.796Z,8.43
2023-07-11T00:47:24.774Z,9.10
2023-07-11T00:49:59.679Z,8.33
2023-07-11T00:52:30.601Z,8.70
2023-07-11T00:55:04.650Z,8.60
2023-07-11T00:57:40.641Z,9.20
2023-07-11T01:00:12.703Z,8.70
2023-07-11T01:02:48.466Z,8.83
2023-07-11T01:05:23.140Z,9.90
2023-07-11T01:07:52.786Z,8.17
2023-07-11T01:10:22.929Z,8.43
2023-07-11T01:13:01.251Z,8.60
2023-07-11T01:15:30.950Z,8.27
2023-07-11T01:18:02.253Z,8.97
2023-07-11T01:20:31.473Z,9.23
2023-07-11T01:23:03.522Z,9.70
2023-07-11T01:25:32.950Z,10.10
2023-07-11T01:28:02.928Z,9.37
2023-07-11T01:30:31.750Z,9.13
2023-07-11T01:33:00.457Z,9.20
2023-07-11T01:35:30.502Z,9.20
2023-07-11T01:37:59.769Z,8.80
2023-07-11T01:40:32.064Z,9.47
2023-07-11T01:43:03.711Z,8.70
2023-07-11T01:45:34.234Z,8.73
2023-07-11T01:48:03.132Z,8.40
2023-07-11T01:50:35.556Z,8.87
2023-07-11T01:53:04.435Z,9.10
2023-07-11T01:55:34.854Z,8.87
2023-07-11T01:58:05.999Z,8.93
2023-07-11T02:00:34.972Z,9.20
2023-07-11T02:03:05.173Z,8.60
2023-07-11T02:05:36.534Z,9.63
2023-07-11T02:08:07.348Z,8.70
2023-07-11T02:10:37.832Z,10.50
2023-07-11T02:13:06.965Z,8.50
2023-07-11T02:15:36.711Z,9.00
2023-07-11T02:18:05.848Z,8.37
2023-07-11T02:20:40.044Z,9.50
2023-07-11T02:23:11.250Z,9.03
2023-07-11T02:25:42.758Z,8.90
2023-07-11T02:28:14.263Z,9.80
2023-07-11T02:30:43.946Z,9.50
2023-07-11T02:33:12.792Z,9.17
2023-07-11T02:35:42.990Z,9.07
2023-07-11T02:38:11.814Z,8.77
2023-07-11T02:40:41.966Z,8.83
2023-07-11T02:43:11.006Z,9.17
2023-07-11T02:45:41.645Z,9.30
2023-07-11T02:48:12.134Z,9.23
2023-07-11T02:50:41.293Z,9.13
2023-07-11T02:53:10.436Z,9.13
2023-07-11T02:55:44.616Z,8.83
2023-07-11T02:58:14.590Z,9.10
2023-07-11T03:00:50.003Z,9.83
2023-07-11T03:03:19.319Z,8.77
2023-07-11T03:05:49.956Z,9.17
2023-07-11T03:08:19.873Z,8.83
2023-07-11T03:10:50.149Z,8.97
2023-07-11T03:13:19.439Z,9.10
2023-07-11T03:15:48.780Z,9.00
2023-07-11T03:18:17.686Z,8.40
2023-07-11T03:20:46.808Z,9.10
2023-07-11T03:23:19.573Z,9.30
2023-07-11T03:25:51.311Z,8.70
2023-07-11T03:28:20.399Z,8.47
2023-07-11T03:30:50.313Z,8.80
2023-07-11T03:33:19.500Z,8.93
2023-07-11T03:35:53.029Z,8.97
2023-07-11T03:38:22.919Z,8.97
2023-07-11T03:40:53.408Z,9.00
2023-07-11T03:43:22.337Z,9.50
2023-07-11T03:45:51.199Z,8.20
2023-07-11T03:48:21.587Z,9.10
2023-07-11T03:50:50.895Z,9.07
2023-07-11T03:53:20.956Z,8.30
2023-07-11T03:55:49.651Z,8.50
2023-07-11T03:58:20.042Z,9.10
2023-07-11T04:00:49.342Z,8.57
2023-07-11T04:03:18.019Z,8.70
2023-07-11T04:05:47.097Z,8.90
2023-07-11T04:08:16.698Z,9.30
2023-07-11T04:10:46.166Z,9.40
2023-07-11T04:13:14.919Z,8.80
2023-07-11T04:15:50.685Z,8.90
2023-07-11T04:18:20.503Z,8.90
2023-07-11T04:20:50.910Z,9.50
2023-07-11T04:23:20.482Z,9.13
2023-07-11T04:25:49.866Z,9.80
2023-07-11T04:28:19.098Z,10.33
2023-07-11T04:30:49.987Z,9.43
2023-07-11T04:33:29.796Z,9.67
2023-07-11T04:36:11.632Z,10.30
2023-07-11T04:38:41.276Z,10.40
2023-07-11T04:41:10.560Z,9.87
2023-07-11T04:43:40.341Z,10.40
2023-07-11T04:46:12.551Z,10.00
2023-07-11T04:48:41.261Z,11.83
2023-07-11T04:51:12.394Z,10.37
2023-07-11T04:53:41.826Z,11.20
2023-07-11T04:56:12.620Z,11.57
2023-07-11T04:58:42.079Z,11.77
2023-07-11T05:01:15.176Z,12.17
2023-07-11T05:03:45.905Z,12.87
2023-07-11T05:06:15.869Z,12.80
2023-07-11T05:08:44.935Z,12.30
2023-07-11T05:11:16.269Z,12.03
2023-07-11T05:13:46.900Z,12.47
2023-07-11T05:16:20.631Z,12.60
2023-07-11T05:18:51.904Z,13.07
2023-07-11T05:21:21.892Z,12.97
2023-07-11T05:23:50.964Z,13.47
2023-07-11T05:26:24.163Z,14.03
2023-07-11T05:28:53.294Z,13.00
2023-07-11T05:31:23.724Z,12.87
2023-07-11T05:33:55.706Z,12.30
2023-07-11T05:36:33.208Z,12.80
2023-07-11T05:39:08.336Z,12.73
2023-07-11T05:41:39.664Z,11.93
2023-07-11T05:44:08.953Z,12.73
2023-07-11T05:46:40.003Z,12.93
2023-07-11T05:49:09.607Z,12.30
2023-07-11T05:51:40.139Z,11.13
2023-07-11T05:54:08.717Z,12.13
2023-07-11T05:56:37.378Z,12.80
2023-07-11T05:59:06.962Z,11.93
2023-07-11T06:01:36.161Z,12.90
2023-07-11T06:04:10.514Z,17.90
2023-07-11T06:06:44.493Z,17.43
2023-07-11T06:09:17.134Z,15.07
2023-07-11T06:11:47.827Z,15.47
2023-07-11T06:14:18.394Z,14.57
2023-07-11T06:16:50.821Z,13.80
2023-07-11T06:19:21.725Z,16.30
2023-07-11T06:21:50.547Z,14.77
2023-07-11T06:24:19.348Z,15.50
2023-07-11T06:26:48.084Z,15.10
2023-07-11T06:29:16.739Z,15.43
2023-07-11T06:31:47.168Z,13.00
2023-07-11T06:34:16.271Z,11.80
2023-07-11T06:36:46.768Z,12.70
2023-07-11T06:39:15.620Z,12.20
2023-07-11T06:41:44.536Z,11.27
2023-07-11T06:44:13.441Z,12.00
2023-07-11T06:46:43.152Z,12.37
2023-07-11T06:49:11.713Z,12.20
2023-07-11T06:51:40.495Z,12.90
2023-07-11T06:54:11.337Z,11.77
2023-07-11T06:56:40.990Z,12.30
2023-07-11T06:59:09.586Z,13.17
2023-07-11T07:01:39.984Z,12.10
2023-07-11T07:04:09.867Z,12.60
2023-07-11T07:06:39.126Z,13.13
2023-07-11T07:09:09.998Z,11.47
2023-07-11T07:11:39.988Z,11.90
2023-07-11T07:14:11.530Z,11.73
2023-07-11T07:16:42.122Z,11.40
2023-07-11T07:19:13.517Z,12.00
2023-07-11T07:21:42.294Z,12.40
2023-07-11T07:24:14.663Z,12.87
2023-07-11T07:26:43.898Z,10.90
2023-07-11T07:29:12.614Z,10.57
2023-07-11T07:31:41.540Z,11.60
2023-07-11T07:34:10.695Z,11.20
2023-07-11T07:36:39.520Z,10.93
2023-07-11T07:39:10.811Z,10.17
2023-07-11T07:41:41.619Z,9.43
2023-07-11T07:44:11.319Z,10.67
2023-07-11T07:46:40.547Z,8.60
2023-07-11T07:49:09.826Z,14.20
2023-07-11T07:51:38.470Z,11.47
2023-07-11T07:54:09.894Z,12.57
2023-07-11T07:56:42.264Z,11.53
2023-07-11T07:59:11.418Z,13.50
2023-07-11T08:01:43.660Z,10.00
2023-07-11T08:04:12.575Z,10.37
2023-07-11T08:06:42.105Z,9.80
2023-07-11T08:09:10.737Z,10.30
2023-07-11T08:11:41.104Z,11.40
2023-07-11T08:14:12.967Z,10.03
2023-07-11T08:16:47.780Z,9.90
2023-07-11T08:19:18.514Z,9.73
2023-07-11T08:21:47.896Z,10.00
2023-07-11T08:24:16.643Z,9.50
2023-07-11T08:26:47.327Z,9.67
2023-07-11T08:29:29.061Z,9.00
2023-07-11T08:31:59.628Z,8.20
2023-07-11T08:34:28.485Z,8.57
2023-07-11T08:36:57.126Z,9.27
2023-07-11T08:39:25.681Z,9.43
2023-07-11T08:41:57.625Z,9.37
2023-07-11T08:44:37.277Z,10.97
2023-07-11T08:47:16.557Z,9.60
2023-07-11T08:49:52.658Z,9.67
2023-07-11T08:52:24.007Z,9.93
2023-07-11T08:55:01.766Z,9.80
2023-07-11T08:57:38.585Z,9.93
2023-07-11T09:00:14.276Z,10.10
2023-07-11T09:02:57.327Z,10.90
2023-07-11T09:05:41.705Z,11.03
2023-07-11T09:08:18.321Z,11.10
2023-07-11T09:11:04.344Z,11.30
2023-07-11T09:13:57.126Z,10.90
2023-07-11T09:16:38.346Z,10.80
2023-07-11T09:19:32.168Z,11.30
2023-07-11T09:22:12.075Z,11.40
2023-07-11T09:24:52.339Z,11.77
2023-07-11T09:27:27.965Z,10.97
2023-07-11T09:29:58.614Z,12.07
2023-07-11T09:32:36.091Z,11.40
2023-07-11T09:35:26.396Z,11.97
2023-07-11T09:38:03.099Z,11.97
2023-07-11T09:40:44.823Z,11.70
2023-07-11T09:43:13.558Z,12.27
2023-07-11T09:45:46.585Z,11.50
2023-07-11T09:48:20.076Z,12.17
2023-07-11T09:51:12.686Z,12.50
2023-07-11T09:53:47.616Z,12.60
2023-07-11T09:56:20.445Z,12.27
2023-07-11T09:58:52.815Z,11.87
2023-07-11T10:01:27.726Z,11.20
2023-07-11T10:03:59.904Z,11.83
2023-07-11T10:09:23.635Z,12.13
2023-07-11T10:11:58.629Z,12.30
2023-07-11T10:14:33.714Z,12.10
2023-07-11T10:17:19.754Z,12.30
2023-07-11T10:19:53.330Z,12.33
2023-07-11T10:22:28.091Z,13.53
2023-07-11T10:25:04.187Z,13.63
2023-07-11T10:27:38.891Z,13.37
2023-07-11T10:30:19.711Z,13.43
2023-07-11T10:33:08.554Z,12.63
2023-07-11T10:35:54.272Z,13.00
2023-07-11T10:38:30.591Z,12.60
2023-07-11T10:41:04.025Z,13.77
2023-07-11T10:43:41.001Z,14.37
2023-07-11T10:46:21.018Z,13.33
2023-07-11T10:48:56.797Z,14.10
2023-07-11T10:51:38.369Z,14.10
2023-07-11T10:54:20.226Z,13.57
2023-07-11T10:56:58.691Z,14.30
2023-07-11T10:59:33.987Z,14.10
2023-07-11T11:02:13.608Z,13.80
2023-07-11T11:05:15.563Z,15.03
2023-07-11T11:07:51.904Z,14.77
2023-07-11T11:10:43.737Z,15.07
2023-07-11T11:13:34.166Z,14.87
2023-07-11T11:16:13.752Z,14.33
2023-07-11T11:19:03.833Z,13.40
2023-07-11T11:24:42.359Z,15.73
2023-07-11T11:27:33.716Z,14.70
2023-07-11T11:30:20.234Z,14.80
2023-07-11T11:33:01.521Z,14.75
2023-07-11T11:35:47.679Z,14.93
2023-07-11T11:41:18.665Z,14.48
2023-07-11T11:46:29.467Z,16.20
2023-07-11T11:51:35.848Z,14.20
2023-07-11T11:54:17.962Z,15.80
2023-07-11T11:56:56.639Z,14.63
2023-07-11T11:59:30.008Z,15.10
2023-07-11T12:02:06.787Z,16.30
2023-07-11T12:05:03.914Z,13.93
2023-07-11T12:07:43.125Z,15.15
2023-07-11T12:10:37.190Z,14.75
2023-07-11T12:13:30.929Z,15.00
2023-07-11T12:16:04.978Z,15.10
2023-07-11T12:18:47.362Z,15.52
2023-07-11T12:21:44.677Z,15.20
2023-07-11T12:24:42.195Z,15.32
2023-07-11T12:28:02.554Z,16.60
2023-07-11T12:30:44.594Z,16.52
2023-07-11T12:33:37.604Z,16.45
2023-07-11T12:36:57.501Z,19.95
2023-07-11T12:39:49.404Z,16.80
2023-07-11T12:42:45.527Z,16.05
2023-07-11T12:45:19.318Z,14.77
2023-07-11T12:48:06.361Z,15.48
2023-07-11T12:50:44.005Z,14.98
2023-07-11T12:53:13.009Z,14.30
2023-07-11T12:55:44.268Z,14.40
2023-07-11T12:58:20.886Z,14.70
2023-07-11T13:00:50.647Z,14.43
2023-07-11T13:03:28.897Z,14.63
2023-07-11T13:06:15.684Z,14.88
2023-07-11T13:08:49.392Z,15.20
2023-07-11T13:11:23.168Z,15.48
2023-07-11T13:13:52.950Z,15.70
2023-07-11T13:16:27.177Z,16.50
2023-07-11T13:18:57.708Z,16.33
2023-07-11T13:21:36.167Z,15.48
2023-07-11T13:24:18.946Z,15.68
2023-07-11T13:26:48.068Z,17.05
2023-07-11T13:29:25.312Z,17.27
2023-07-11T13:32:06.374Z,15.00
2023-07-11T13:34:39.966Z,15.90
2023-07-11T13:37:11.570Z,16.70
2023-07-11T13:39:49.462Z,16.35
2023-07-11T13:42:18.884Z,15.35
2023-07-11T13:44:54.864Z,15.25
2023-07-11T13:47:35.177Z,15.82
2023-07-11T13:50:23.530Z,15.48
2023-07-11T13:53:20.372Z,15.43
2023-07-11T14:04:36.337Z,15.57
2023-07-11T14:07:11.579Z,15.63
2023-07-11T14:09:40.696Z,14.80
2023-07-11T14:12:17.343Z,14.82
2023-07-11T14:14:46.750Z,13.52
2023-07-11T14:17:19.049Z,12.05
2023-07-11T14:19:49.118Z,13.50
2023-07-11T14:22:25.262Z,13.25
2023-07-11T14:24:54.578Z,13.80
2023-07-11T14:27:26.079Z,14.15
2023-07-11T14:30:01.779Z,13.32
2023-07-11T14:32:30.425Z,13.60
2023-07-11T14:35:04.400Z,13.23
2023-07-11T14:37:51.373Z,13.70
2023-07-11T14:40:30.233Z,13.88
2023-07-11T14:43:00.714Z,13.75
2023-07-11T14:45:32.744Z,14.75
2023-07-11T14:48:04.747Z,13.43
2023-07-11T14:50:36.136Z,14.15
2023-07-11T14:53:09.986Z,14.07
2023-07-11T14:58:12.658Z,14.68
2023-07-11T15:00:47.723Z,14.20
2023-07-11T15:05:56.366Z,13.85
2023-07-11T15:09:56.462Z,13.85
2023-07-11T15:17:33.147Z,14.20
2023-07-11T15:20:07.221Z,13.80
2023-07-11T15:22:38.550Z,13.18
2023-07-11T15:25:35.570Z,14.63
2023-07-11T15:28:20.279Z,13.77
2023-07-11T15:31:07.045Z,14.70
2023-07-11T15:33:45.238Z,14.75
2023-07-11T15:36:15.841Z,14.88
2023-07-11T15:39:01.938Z,14.95
2023-07-11T15:41:37.737Z,14.93
2023-07-11T15:44:06.738Z,14.73
2023-07-11T15:46:36.619Z,14.32
2023-07-11T15:49:06.425Z,14.95
2023-07-11T15:51:35.921Z,14.68
2023-07-11T15:54:04.868Z,14.63
2023-07-11T15:56:36.282Z,14.73
2023-07-11T15:59:07.875Z,15.52
2023-07-11T16:01:37.024Z,14.10
2023-07-11T16:04:07.891Z,15.77
2023-07-11T16:06:38.182Z,15.75
2023-07-11T16:09:17.440Z,14.68
2023-07-11T16:11:51.450Z,15.75
2023-07-11T16:14:23.117Z,14.77
2023-07-11T16:16:53.243Z,14.27
2023-07-11T16:19:27.952Z,14.27
2023-07-11T16:21:57.057Z,14.77
2023-07-11T16:24:27.590Z,13.70
2023-07-11T16:27:03.188Z,14.93
2023-07-11T16:29:34.287Z,14.48
2023-07-11T16:32:13.421Z,14.32
2023-07-11T16:34:45.454Z,14.43
2023-07-11T16:37:24.634Z,15.35
2023-07-11T16:39:54.055Z,15.40
2023-07-11T16:42:25.784Z,15.30
2023-07-11T16:44:55.154Z,14.77
2023-07-11T16:47:25.765Z,15.10
2023-07-11T16:49:55.151Z,16.07
2023-07-11T16:52:23.981Z,15.57
2023-07-11T16:54:59.020Z,15.60
2023-07-11T16:57:29.824Z,16.03
2023-07-11T16:59:58.810Z,15.87
2023-07-11T17:02:29.688Z,16.13
2023-07-11T17:04:58.801Z,15.03
2023-07-11T17:07:32.069Z,15.43
2023-07-11T17:10:00.753Z,15.80
2023-07-11T17:12:30.981Z,16.13
2023-07-11T17:15:00.768Z,15.53
2023-07-11T17:17:29.551Z,15.80
2023-07-11T17:19:58.736Z,17.77
2023-07-11T17:22:27.916Z,17.57
2023-07-11T17:24:56.838Z,18.10
2023-07-11T17:27:29.334Z,15.83
2023-07-11T17:30:00.404Z,16.47
2023-07-11T17:32:30.149Z,16.00
2023-07-11T17:34:58.942Z,16.57
2023-07-11T17:37:31.505Z,17.63
2023-07-11T17:40:01.713Z,16.70
2023-07-11T17:42:31.220Z,17.07
2023-07-11T17:45:04.455Z,16.40
2023-07-11T17:50:25.803Z,16.20
2023-07-11T17:52:55.635Z,16.90
2023-07-11T17:55:24.357Z,15.97
2023-07-11T17:57:52.956Z,16.27
2023-07-11T18:00:23.423Z,16.93
2023-07-11T18:03:01.507Z,15.90
2023-07-11T18:05:31.669Z,15.90
2023-07-11T18:08:03.419Z,15.70
2023-07-11T18:10:33.647Z,15.33
2023-07-11T18:15:36.617Z,15.90
2023-07-11T18:18:07.868Z,15.67
2023-07-11T18:20:36.770Z,15.20
2023-07-11T18:23:05.731Z,15.63
2023-07-11T18:25:35.336Z,15.70
2023-07-11T18:28:03.981Z,15.87
2023-07-11T18:30:35.005Z,15.07
2023-07-11T18:33:03.720Z,15.73
2023-07-11T18:35:35.357Z,15.80
2023-07-11T18:38:04.453Z,15.67
2023-07-11T18:40:36.303Z,16.87
2023-07-11T18:43:08.308Z,16.07
2023-07-11T18:45:40.177Z,16.07
2023-07-11T18:48:12.355Z,16.77
2023-07-11T18:50:42.624Z,15.93
2023-07-11T18:53:11.438Z,16.30
2023-07-11T18:55:44.790Z,16.83
2023-07-11T18:58:15.159Z,16.20
2023-07-11T19:00:50.258Z,16.20
2023-07-11T19:03:20.115Z,15.80
2023-07-11T19:05:49.551Z,16.50
2023-07-11T19:08:21.083Z,19.23
2023-07-11T19:10:50.841Z,17.10
2023-07-11T19:13:19.570Z,16.77
2023-07-11T19:15:52.642Z,17.07
2023-07-11T19:18:26.484Z,16.73
2023-07-11T19:20:55.450Z,17.93
2023-07-11T19:23:27.164Z,17.10
2023-07-11T19:25:58.677Z,17.73
2023-07-11T19:28:33.240Z,17.03
2023-07-11T19:31:04.837Z,17.53
2023-07-11T19:33:33.539Z,18.00
2023-07-11T19:36:02.908Z,17.47
2023-07-11T19:38:34.270Z,17.77
2023-07-11T19:41:02.746Z,17.50
2023-07-11T19:43:31.444Z,17.53
2023-07-11T19:46:05.261Z,16.73
2023-07-11T19:48:35.373Z,17.17
2023-07-11T19:51:04.596Z,18.03
2023-07-11T19:53:34.020Z,17.70
2023-07-11T19:56:20.774Z,17.33
2023-07-11T19:58:51.906Z,18.93
2023-07-11T20:01:23.655Z,17.77
2023-07-11T20:04:05.140Z,19.80
2023-07-11T20:06:35.571Z,18.20
2023-07-11T20:09:05.298Z,18.97
2023-07-11T20:11:34.821Z,18.20
2023-07-11T20:14:05.144Z,18.43
2023-07-11T20:16:37.158Z,20.80
2023-07-11T20:19:07.483Z,20.77
2023-07-11T20:24:25.584Z,16.40
2023-07-11T20:26:54.986Z,16.33
2023-07-11T20:29:25.831Z,12.67
2023-07-11T20:32:04.811Z,11.90
2023-07-11T20:34:35.025Z,11.97
2023-07-11T20:37:04.247Z,12.80
2023-07-11T20:39:34.082Z,12.63
2023-07-11T20:42:06.208Z,11.47
2023-07-11T20:44:35.295Z,12.13
2023-07-11T20:47:04.533Z,11.93
2023-07-11T20:49:37.323Z,11.23
2023-07-11T20:52:09.443Z,12.23
2023-07-11T20:54:38.489Z,12.33
2023-07-11T20:57:26.090Z,11.63
2023-07-11T21:00:08.863Z,10.90
2023-07-11T21:05:36.630Z,10.90
2023-07-11T21:08:09.701Z,11.50
2023-07-11T21:10:43.031Z,11.30
2023-07-11T21:13:18.554Z,11.23
2023-07-11T21:15:54.308Z,12.40
2023-07-11T21:18:26.102Z,11.97
2023-07-11T21:20:57.257Z,12.13
2023-07-11T21:23:26.409Z,12.10
2023-07-11T21:25:59.056Z,12.50
2023-07-11T21:28:31.830Z,13.67
2023-07-11T21:31:12.530Z,13.10
2023-07-11T21:33:41.915Z,12.53
2023-07-11T21:36:19.831Z,12.10
2023-07-11T21:38:51.259Z,9.83
2023-07-11T21:41:25.704Z,9.47
2023-07-11T21:43:54.486Z,9.27
2023-07-11T21:46:30.409Z,6.47
2023-07-11T21:48:59.796Z,10.63
2023-07-11T21:51:32.536Z,12.57
2023-07-11T21:54:01.379Z,10.43
2023-07-11T21:56:33.545Z,9.90
2023-07-11T21:59:14.398Z,7.10
2023-07-11T22:01:43.354Z,4.20
2023-07-11T22:04:12.253Z,4.63
2023-07-11T22:06:44.573Z,4.97
2023-07-11T22:09:22.109Z,5.90
2023-07-11T22:11:54.838Z,7.67
2023-07-11T22:15:07.383Z,10.80
2023-07-11T22:18:05.773Z,10.63
2023-07-11T22:20:41.440Z,10.90
2023-07-11T22:23:13.618Z,11.33
2023-07-11T22:25:43.478Z,11.17
2023-07-11T22:28:25.892Z,12.30
2023-07-11T22:30:58.747Z,12.63
2023-07-11T22:33:27.536Z,13.10
2023-07-11T22:35:56.248Z,13.10
2023-07-11T22:38:28.254Z,14.07
2023-07-11T22:40:57.291Z,13.47
2023-07-11T22:43:28.102Z,13.93
2023-07-11T22:46:00.627Z,14.60
2023-07-11T22:48:32.401Z,15.10
2023-07-11T22:51:03.118Z,16.63
2023-07-11T22:53:34.352Z,15.83
2023-07-11T22:56:12.584Z,15.50
2023-07-11T22:58:41.387Z,15.30
2023-07-11T23:01:17.479Z,16.30
2023-07-11T23:03:46.913Z,19.37
2023-07-11T23:06:21.048Z,17.57
2023-07-11T23:08:52.465Z,16.00
2023-07-11T23:11:23.944Z,17.20
2023-07-11T23:13:52.721Z,17.70
2023-07-11T23:16:29.113Z,16.67
2023-07-11T23:19:00.277Z,18.63
2023-07-11T23:21:30.473Z,18.10
2023-07-11T23:24:02.201Z,18.60
2023-07-11T23:26:31.875Z,17.30
2023-07-11T23:29:00.619Z,16.13
2023-07-11T23:31:29.523Z,16.70
2023-07-11T23:33:58.111Z,16.67
2023-07-11T23:36:28.335Z,15.60
2023-07-11T23:38:57.897Z,15.37
2023-07-11T23:41:29.166Z,14.90
2023-07-11T23:43:57.937Z,15.50
2023-07-11T23:46:32.393Z,13.53
2023-07-11T23:49:02.420Z,14.03
2023-07-11T23:51:31.531Z,14.40
2023-07-11T23:54:00.554Z,13.20
2023-07-11T23:56:32.817Z,11.80
2023-07-11T23:59:01.814Z,12.93
